Time;durP1;ratioP1;P1;durP2;ratioP2;P2;SDS_P1;SDS_P2;PMS_P1;PMS_P2;Temp;Humidity;BMP_temperature;BMP_pressure;BME280_temperature;BME280_humidity;BME280_pressure;Samples;Min_cycle;Max_cycle;Signal;HPM_P1;HPM_P2
2022/03/26 00:00:00;;;;;;;33.63;22.15;;;;;;;;;;5040614;28;20048;-71
2022/03/26 00:02:27;;;;;;;36.95;24.40;;;;;;;;;;5062289;28;20045;-71
2022/03/26 00:04:53;;;;;;;33.55;23.23;;;;;;;;;;5060745;28;20040;-72
2022/03/26 00:07:19;;;;;;;36.88;24.23;;;;;;;;;;5061897;28;20044;-71
2022/03/26 00:09:45;;;;;;;32.85;23.55;;;;;;;;;;5060335;28;20055;-71
2022/03/26 00:12:11;;;;;;;35.38;23.75;;;;;;;;;;5060664;28;20036;-71
2022/03/26 00:14:37;;;;;;;33.60;22.98;;;;;;;;;;5060829;28;20119;-71
2022/03/26 00:17:03;;;;;;;34.00;23.17;;;;;;;;;;5062368;28;20481;-71
2022/03/26 00:19:29;;;;;;;36.10;24.92;;;;;;;;;;5060912;28;20050;-71
2022/03/26 00:21:55;;;;;;;33.03;24.08;;;;;;;;;;5062339;28;20139;-71
2022/03/26 00:24:21;;;;;;;37.00;24.30;;;;;;;;;;5061075;28;20381;-71
2022/03/26 00:26:48;;;;;;;34.88;24.27;;;;;;;;;;5061922;28;20044;-71
2022/03/26 00:29:14;;;;;;;37.95;24.77;;;;;;;;;;5061596;28;20420;-71
2022/03/26 00:31:40;;;;;;;39.55;26.65;;;;;;;;;;5061583;28;20040;-71
2022/03/26 00:34:07;;;;;;;37.05;25.42;;;;;;;;;;5045070;28;20453;-71
2022/03/26 00:36:33;;;;;;;35.90;24.83;;;;;;;;;;5062769;28;20582;-71
2022/03/26 00:38:59;;;;;;;35.72;26.25;;;;;;;;;;5062041;28;20070;-71
2022/03/26 00:41:25;;;;;;;35.85;24.90;;;;;;;;;;5041910;28;20066;-71
2022/03/26 00:43:51;;;;;;;36.38;24.63;;;;;;;;;;5042011;28;20497;-71
2022/03/26 00:46:17;;;;;;;35.90;24.70;;;;;;;;;;5042538;28;20066;-71
2022/03/26 00:48:44;;;;;;;38.25;25.88;;;;;;;;;;5044888;28;20044;-71
2022/03/26 00:51:10;;;;;;;39.10;25.70;;;;;;;;;;5060775;28;20040;-71
2022/03/26 00:53:36;;;;;;;38.13;25.25;;;;;;;;;;5061015;28;20055;-71
2022/03/26 00:56:04;;;;;;;40.90;26.08;;;;;;;;;;5060273;28;20729;-70
2022/03/26 00:58:30;;;;;;;37.58;26.00;;;;;;;;;;5061928;28;20044;-71
2022/03/26 01:00:56;;;;;;;39.22;26.70;;;;;;;;;;5060180;28;20098;-71
2022/03/26 01:03:22;;;;;;;37.72;26.02;;;;;;;;;;5062169;28;20052;-71
2022/03/26 01:05:48;;;;;;;42.38;26.77;;;;;;;;;;5060332;28;20047;-71
2022/03/26 01:08:14;;;;;;;37.78;26.40;;;;;;;;;;5061804;28;20121;-71
2022/03/26 01:10:42;;;;;;;37.42;25.42;;;;;;;;;;5059752;28;20076;-71
2022/03/26 01:13:08;;;;;;;39.22;27.55;;;;;;;;;;5061969;28;20059;-71
2022/03/26 01:15:34;;;;;;;42.63;28.23;;;;;;;;;;5060358;28;20094;-71
2022/03/26 01:18:00;;;;;;;41.92;27.45;;;;;;;;;;5045103;28;20048;-71
2022/03/26 01:20:26;;;;;;;39.72;26.80;;;;;;;;;;5060031;28;20043;-71
2022/03/26 01:22:52;;;;;;;41.55;27.63;;;;;;;;;;5063007;28;20686;-71
2022/03/26 01:25:18;;;;;;;37.60;25.90;;;;;;;;;;5061277;28;20068;-71
2022/03/26 01:27:44;;;;;;;40.20;26.30;;;;;;;;;;5061761;28;20076;-71
2022/03/26 01:30:10;;;;;;;37.05;24.80;;;;;;;;;;5060089;28;20040;-71
2022/03/26 01:32:36;;;;;;;38.40;26.20;;;;;;;;;;5061942;28;20713;-71
2022/03/26 01:35:02;;;;;;;38.38;25.45;;;;;;;;;;5059579;28;20094;-71
2022/03/26 01:37:28;;;;;;;37.88;26.27;;;;;;;;;;5044506;28;20038;-71
2022/03/26 01:39:54;;;;;;;36.50;25.10;;;;;;;;;;5059807;28;20040;-71
2022/03/26 01:42:20;;;;;;;38.65;25.45;;;;;;;;;;5059728;28;20036;-71
2022/03/26 01:44:47;;;;;;;40.10;26.60;;;;;;;;;;5060139;28;20045;-71
2022/03/26 01:47:13;;;;;;;37.35;26.15;;;;;;;;;;5061786;28;20421;-71
2022/03/26 01:49:39;;;;;;;38.30;26.58;;;;;;;;;;5059871;28;20037;-71
2022/03/26 01:52:07;;;;;;;37.90;26.23;;;;;;;;;;5061149;28;20044;-71
2022/03/26 01:54:33;;;;;;;39.78;27.38;;;;;;;;;;5060080;28;20044;-71
2022/03/26 01:56:59;;;;;;;37.78;26.15;;;;;;;;;;5060667;28;20036;-71
2022/03/26 01:59:26;;;;;;;37.35;25.95;;;;;;;;;;5060429;28;20078;-71
2022/03/26 02:01:52;;;;;;;36.80;25.42;;;;;;;;;;5061029;28;20799;-71
2022/03/26 02:04:18;;;;;;;38.83;26.88;;;;;;;;;;5060665;28;20047;-71
2022/03/26 02:06:44;;;;;;;35.40;25.35;;;;;;;;;;5048065;28;20398;-71
2022/03/26 02:09:11;;;;;;;38.60;25.63;;;;;;;;;;5064056;28;20669;-71
2022/03/26 02:11:39;;;;;;;38.75;27.33;;;;;;;;;;5064577;28;20136;-71
2022/03/26 02:14:07;;;;;;;42.00;27.27;;;;;;;;;;5048127;28;20056;-71
2022/03/26 02:16:33;;;;;;;41.35;27.67;;;;;;;;;;5047329;28;20055;-71
2022/03/26 02:18:59;;;;;;;39.15;26.25;;;;;;;;;;5045254;28;20205;-71
2022/03/26 02:21:25;;;;;;;37.22;25.60;;;;;;;;;;5033868;28;20661;-71
2022/03/26 02:23:52;;;;;;;39.80;26.38;;;;;;;;;;5044572;28;20057;-71
2022/03/26 02:26:25;;;;;;;41.25;27.30;;;;;;;;;;5060224;28;20132;-71
2022/03/26 02:28:52;;;;;;;39.97;27.93;;;;;;;;;;5064806;28;20117;-71
2022/03/26 02:31:18;;;;;;;41.47;27.60;;;;;;;;;;5063108;28;20044;-71
2022/03/26 02:33:44;;;;;;;38.92;27.40;;;;;;;;;;5065317;28;20058;-71
2022/03/26 02:36:10;;;;;;;41.47;27.30;;;;;;;;;;5063313;28;20434;-71
2022/03/26 02:38:37;;;;;;;41.70;28.83;;;;;;;;;;5064440;28;20036;-71
2022/03/26 02:41:03;;;;;;;37.10;26.15;;;;;;;;;;5063002;28;20544;-71
2022/03/26 02:43:29;;;;;;;41.13;27.88;;;;;;;;;;5064217;28;20631;-71
2022/03/26 02:45:55;;;;;;;42.13;27.80;;;;;;;;;;5062767;28;20040;-71
2022/03/26 02:48:21;;;;;;;42.05;28.25;;;;;;;;;;5064085;28;20632;-71
2022/03/26 02:50:47;;;;;;;42.63;28.60;;;;;;;;;;5046014;28;20080;-71
2022/03/26 02:53:14;;;;;;;45.47;30.45;;;;;;;;;;5063742;28;20047;-71
2022/03/26 02:55:40;;;;;;;40.80;27.40;;;;;;;;;;5060239;28;20132;-71
2022/03/26 02:58:07;;;;;;;42.75;29.23;;;;;;;;;;5064397;28;20379;-71
2022/03/26 03:00:33;;;;;;;43.47;28.83;;;;;;;;;;5062345;28;20047;-71
2022/03/26 03:03:00;;;;;;;45.50;30.65;;;;;;;;;;5063922;28;20040;-72
2022/03/26 03:05:26;;;;;;;45.85;30.85;;;;;;;;;;5062167;28;20040;-71
2022/03/26 03:07:52;;;;;;;45.45;29.50;;;;;;;;;;5064025;28;20070;-71
2022/03/26 03:10:18;;;;;;;45.92;30.77;;;;;;;;;;5063131;28;20632;-71
2022/03/26 03:12:48;;;;;;;44.30;29.42;;;;;;;;;;5046988;28;20041;-71
2022/03/26 03:15:18;;;;;;;44.80;29.60;;;;;;;;;;5046121;28;20037;-71
2022/03/26 03:17:45;;;;;;;41.97;28.70;;;;;;;;;;5063045;28;20058;-71
2022/03/26 03:20:12;;;;;;;41.63;29.02;;;;;;;;;;5061832;28;20043;-71
2022/03/26 03:22:38;;;;;;;48.03;31.05;;;;;;;;;;5063718;28;20045;-71
2022/03/26 03:25:05;;;;;;;42.45;30.23;;;;;;;;;;5061351;28;20047;-71
2022/03/26 03:27:31;;;;;;;48.17;29.90;;;;;;;;;;5063124;28;20078;-71
2022/03/26 03:29:57;;;;;;;47.45;31.55;;;;;;;;;;5062061;28;20060;-71
2022/03/26 03:32:23;;;;;;;43.58;30.08;;;;;;;;;;5063568;28;20072;-71
2022/03/26 03:34:49;;;;;;;44.80;30.83;;;;;;;;;;5061388;28;20139;-71
2022/03/26 03:37:15;;;;;;;44.47;29.83;;;;;;;;;;5062911;28;20128;-71
2022/03/26 03:39:41;;;;;;;42.92;29.75;;;;;;;;;;5045114;28;20068;-71
2022/03/26 03:42:09;;;;;;;48.08;31.98;;;;;;;;;;5046221;28;20425;-71
2022/03/26 03:44:35;;;;;;;48.80;32.47;;;;;;;;;;5045308;28;20028;-71
2022/03/26 03:47:01;;;;;;;47.97;31.05;;;;;;;;;;5062922;28;20040;-71
2022/03/26 03:49:29;;;;;;;47.03;32.15;;;;;;;;;;5061376;28;20060;-71
2022/03/26 03:51:55;;;;;;;47.90;31.30;;;;;;;;;;5062626;28;20721;-71
2022/03/26 03:54:21;;;;;;;49.03;33.00;;;;;;;;;;5045523;28;20129;-71
2022/03/26 03:56:47;;;;;;;46.88;31.25;;;;;;;;;;5060655;28;20713;-71
2022/03/26 03:59:13;;;;;;;49.97;32.78;;;;;;;;;;5045240;28;20047;-71
2022/03/26 04:01:39;;;;;;;48.25;32.53;;;;;;;;;;5062465;28;20037;-72
2022/03/26 04:04:05;;;;;;;49.15;32.80;;;;;;;;;;5062529;28;20044;-71
2022/03/26 04:06:31;;;;;;;45.83;31.27;;;;;;;;;;5061205;28;20097;-71
2022/03/26 04:08:57;;;;;;;46.55;30.80;;;;;;;;;;5045913;28;20601;-71
2022/03/26 04:11:23;;;;;;;45.80;31.13;;;;;;;;;;5061117;28;20087;-71
2022/03/26 04:13:52;;;;;;;44.80;30.00;;;;;;;;;;5062405;28;20032;-71
2022/03/26 04:16:19;;;;;;;47.78;32.67;;;;;;;;;;5060317;28;20105;-70
2022/03/26 04:18:45;;;;;;;50.33;33.42;;;;;;;;;;5045717;28;20052;-71
2022/03/26 04:21:11;;;;;;;49.72;32.88;;;;;;;;;;5060868;28;20041;-71
2022/03/26 04:23:36;;;;;;;49.55;33.85;;;;;;;;;;5062334;28;20040;-72
2022/03/26 04:26:02;;;;;;;49.42;33.17;;;;;;;;;;5045405;28;20041;-71
2022/03/26 04:28:28;;;;;;;50.28;34.22;;;;;;;;;;5042185;28;20048;-71
2022/03/26 04:30:54;;;;;;;52.35;34.17;;;;;;;;;;5056353;28;20051;-71
2022/03/26 04:33:20;;;;;;;55.20;34.97;;;;;;;;;;5045485;28;20423;-71
2022/03/26 04:35:47;;;;;;;56.78;34.97;;;;;;;;;;5060496;28;20060;-71
2022/03/26 04:38:13;;;;;;;53.90;34.28;;;;;;;;;;5061791;28;20032;-71
2022/03/26 04:40:39;;;;;;;54.92;35.72;;;;;;;;;;5043751;28;20148;-70
2022/03/26 04:43:05;;;;;;;48.45;32.20;;;;;;;;;;5062319;28;20651;-71
2022/03/26 04:45:32;;;;;;;50.90;33.42;;;;;;;;;;5061005;28;20385;-71
2022/03/26 04:47:58;;;;;;;51.53;34.13;;;;;;;;;;5062047;28;20052;-71
2022/03/26 04:50:24;;;;;;;47.97;32.85;;;;;;;;;;5060296;28;20043;-71
2022/03/26 04:52:50;;;;;;;49.50;33.33;;;;;;;;;;5062095;28;20079;-71
2022/03/26 04:55:17;;;;;;;52.92;35.45;;;;;;;;;;5060104;28;20043;-71
2022/03/26 04:57:44;;;;;;;53.80;35.72;;;;;;;;;;5061835;28;20048;-71
2022/03/26 05:00:11;;;;;;;52.60;36.13;;;;;;;;;;5044655;28;20206;-71
2022/03/26 05:02:38;;;;;;;52.38;35.28;;;;;;;;;;5061964;28;20045;-71
2022/03/26 05:05:05;;;;;;;50.70;33.08;;;;;;;;;;5060336;28;20044;-71
2022/03/26 05:07:46;;;;;;;50.63;34.10;;;;;;;;;;5061905;28;20633;-71
2022/03/26 05:10:15;;;;;;;51.13;33.65;;;;;;;;;;5059896;28;20643;-71
2022/03/26 05:12:42;;;;;;;52.47;34.42;;;;;;;;;;5061815;28;20124;-71
2022/03/26 05:15:08;;;;;;;52.65;35.80;;;;;;;;;;5044015;28;20087;-71
2022/03/26 05:17:34;;;;;;;51.47;34.80;;;;;;;;;;5061631;28;20534;-71
2022/03/26 05:20:00;;;;;;;51.90;35.45;;;;;;;;;;5059607;28;20071;-71
2022/03/26 05:22:28;;;;;;;54.03;35.22;;;;;;;;;;5061661;28;20739;-71
2022/03/26 05:24:54;;;;;;;54.67;35.95;;;;;;;;;;5044155;28;20032;-71
2022/03/26 05:27:20;;;;;;;54.60;35.08;;;;;;;;;;5061383;28;20040;-71
2022/03/26 05:29:46;;;;;;;52.17;36.08;;;;;;;;;;5060412;28;20044;-71
2022/03/26 05:32:12;;;;;;;53.67;35.30;;;;;;;;;;5061104;28;20053;-71
2022/03/26 05:34:39;;;;;;;51.35;34.97;;;;;;;;;;5061233;28;20111;-71
2022/03/26 05:37:05;;;;;;;54.80;36.13;;;;;;;;;;5061004;28;20098;-71
2022/03/26 05:39:32;;;;;;;55.95;36.65;;;;;;;;;;5044302;28;20121;-71
2022/03/26 05:41:58;;;;;;;54.72;35.55;;;;;;;;;;5064401;28;20127;-71
2022/03/26 05:44:25;;;;;;;52.17;35.00;;;;;;;;;;5063683;28;20044;-72
2022/03/26 05:46:51;;;;;;;51.65;34.63;;;;;;;;;;5065381;28;20039;-71
2022/03/26 05:49:17;;;;;;;49.75;35.08;;;;;;;;;;5064043;28;20049;-72
2022/03/26 05:51:44;;;;;;;55.28;36.45;;;;;;;;;;5065049;28;20508;-71
2022/03/26 05:54:10;;;;;;;50.53;35.25;;;;;;;;;;5064381;28;20051;-72
2022/03/26 05:56:37;;;;;;;52.67;34.28;;;;;;;;;;5047514;28;20369;-71
2022/03/26 05:59:03;;;;;;;53.13;34.97;;;;;;;;;;5065033;28;20098;-71
2022/03/26 06:01:30;;;;;;;55.42;34.70;;;;;;;;;;5047336;28;20044;-71
2022/03/26 06:03:56;;;;;;;51.33;33.95;;;;;;;;;;5065054;28;20098;-72
2022/03/26 06:06:22;;;;;;;50.10;33.60;;;;;;;;;;5063525;28;20036;-72
2022/03/26 06:08:48;;;;;;;52.55;35.13;;;;;;;;;;5066113;28;20128;-71
2022/03/26 06:11:14;;;;;;;53.08;35.08;;;;;;;;;;5063179;28;20492;-71
2022/03/26 06:13:40;;;;;;;52.28;35.10;;;;;;;;;;5064662;28;20044;-72
2022/03/26 06:16:06;;;;;;;52.20;35.00;;;;;;;;;;5063331;28;20620;-72
2022/03/26 06:18:33;;;;;;;51.40;35.05;;;;;;;;;;5064939;28;20075;-72
2022/03/26 06:21:00;;;;;;;53.92;34.90;;;;;;;;;;5063064;28;20045;-73
2022/03/26 06:23:26;;;;;;;51.22;35.28;;;;;;;;;;5064744;28;20041;-72
2022/03/26 06:25:52;;;;;;;54.20;35.85;;;;;;;;;;5062840;28;20620;-72
2022/03/26 06:28:19;;;;;;;50.28;34.40;;;;;;;;;;5063326;28;20040;-71
2022/03/26 06:30:47;;;;;;;53.08;34.78;;;;;;;;;;5063109;28;20037;-72
2022/03/26 06:33:16;;;;;;;52.55;35.47;;;;;;;;;;5047662;28;20052;-72
2022/03/26 06:35:42;;;;;;;54.28;36.22;;;;;;;;;;5062627;28;20540;-71
2022/03/26 06:38:09;;;;;;;49.40;33.03;;;;;;;;;;5064372;28;20072;-72
2022/03/26 06:40:35;;;;;;;49.85;33.08;;;;;;;;;;5061717;28;20044;-72
2022/03/26 06:43:01;;;;;;;48.47;32.90;;;;;;;;;;5064518;28;20097;-72
2022/03/26 06:45:27;;;;;;;49.92;34.03;;;;;;;;;;5062791;28;20124;-72
2022/03/26 06:47:53;;;;;;;48.75;32.80;;;;;;;;;;5064186;28;20032;-72
2022/03/26 06:50:19;;;;;;;53.90;33.08;;;;;;;;;;5062458;28;20054;-72
2022/03/26 06:52:45;;;;;;;50.67;34.17;;;;;;;;;;5063195;28;20044;-72
2022/03/26 06:55:11;;;;;;;49.75;32.70;;;;;;;;;;5053929;28;20446;-72
2022/03/26 06:57:38;;;;;;;51.13;33.97;;;;;;;;;;5045251;28;20447;-72
2022/03/26 07:00:05;;;;;;;48.42;33.03;;;;;;;;;;5034425;28;20087;-72
2022/03/26 07:02:31;;;;;;;52.22;33.97;;;;;;;;;;5063848;28;20047;-72
2022/03/26 07:04:57;;;;;;;48.90;32.70;;;;;;;;;;5062389;28;20041;-72
2022/03/26 07:07:23;;;;;;;51.50;32.95;;;;;;;;;;5063861;28;20045;-72
2022/03/26 07:09:49;;;;;;;49.50;32.58;;;;;;;;;;5062640;28;20040;-72
2022/03/26 07:12:15;;;;;;;50.47;33.05;;;;;;;;;;5063653;28;20123;-72
2022/03/26 07:14:41;;;;;;;47.47;32.50;;;;;;;;;;5046038;28;20512;-72
2022/03/26 07:17:07;;;;;;;48.92;32.15;;;;;;;;;;5064789;28;20052;-72
2022/03/26 07:19:33;;;;;;;47.53;31.35;;;;;;;;;;5045718;28;20044;-73
2022/03/26 07:21:59;;;;;;;50.70;32.63;;;;;;;;;;5063341;28;20402;-72
2022/03/26 07:24:25;;;;;;;51.92;33.65;;;;;;;;;;5062512;28;20044;-72
2022/03/26 07:26:51;;;;;;;50.38;33.38;;;;;;;;;;5061308;28;20044;-72
2022/03/26 07:29:17;;;;;;;45.40;30.63;;;;;;;;;;5063404;28;20040;-72
2022/03/26 07:31:43;;;;;;;44.53;31.10;;;;;;;;;;5063157;28;20128;-72
2022/03/26 07:34:11;;;;;;;42.45;29.38;;;;;;;;;;5062238;28;20110;-72
2022/03/26 07:36:37;;;;;;;46.67;31.23;;;;;;;;;;5059608;28;20127;-72
2022/03/26 07:39:03;;;;;;;43.70;30.30;;;;;;;;;;5043462;28;20044;-73
2022/03/26 07:41:29;;;;;;;44.20;29.90;;;;;;;;;;5044087;28;20059;-73
2022/03/26 07:43:56;;;;;;;45.22;30.38;;;;;;;;;;5062779;28;20051;-69
2022/03/26 07:46:22;;;;;;;43.88;30.35;;;;;;;;;;5061410;28;20606;-70
2022/03/26 07:48:49;;;;;;;40.97;28.27;;;;;;;;;;5046463;28;20037;-69
2022/03/26 07:51:15;;;;;;;41.30;28.85;;;;;;;;;;5061310;28;20165;-68
2022/03/26 07:53:41;;;;;;;42.55;28.05;;;;;;;;;;5046060;28;20119;-68
2022/03/26 07:56:07;;;;;;;42.75;28.85;;;;;;;;;;5030923;28;20176;-68
2022/03/26 07:58:33;;;;;;;44.95;30.27;;;;;;;;;;5032678;28;21823;-68
2022/03/26 08:00:59;;;;;;;44.92;29.35;;;;;;;;;;5060593;28;20036;-68
2022/03/26 08:03:25;;;;;;;42.83;27.92;;;;;;;;;;5017221;28;20217;-68
2022/03/26 08:05:51;;;;;;;42.10;28.42;;;;;;;;;;5038672;28;20040;-68
2022/03/26 08:08:17;;;;;;;42.28;27.55;;;;;;;;;;5032574;28;20122;-68
2022/03/26 08:10:43;;;;;;;39.92;27.88;;;;;;;;;;5018815;28;20089;-68
2022/03/26 08:13:09;;;;;;;38.13;26.90;;;;;;;;;;5044944;28;20044;-68
2022/03/26 08:15:36;;;;;;;40.67;27.33;;;;;;;;;;5027870;28;20040;-68
2022/03/26 08:18:05;;;;;;;37.90;26.38;;;;;;;;;;5047479;28;20041;-68
2022/03/26 08:20:31;;;;;;;41.88;27.45;;;;;;;;;;5039171;28;20036;-68
2022/03/26 08:22:57;;;;;;;39.05;26.23;;;;;;;;;;5046198;28;20112;-68
2022/03/26 08:28:09;;;;;;;37.60;25.67;;;;;;;;;;5046978;28;20044;-68
2022/03/26 08:30:35;;;;;;;36.95;25.52;;;;;;;;;;5036840;28;20055;-68
2022/03/26 08:33:01;;;;;;;39.80;26.15;;;;;;;;;;5041448;28;20064;-68
2022/03/26 08:35:38;;;;;;;37.45;25.95;;;;;;;;;;5043912;28;20052;-68
2022/03/26 08:38:04;;;;;;;36.75;24.80;;;;;;;;;;5029919;28;20033;-68
2022/03/26 08:40:31;;;;;;;37.38;24.35;;;;;;;;;;5041866;28;20746;-68
2022/03/26 08:42:58;;;;;;;41.88;25.05;;;;;;;;;;5024610;28;20605;-68
2022/03/26 08:45:25;;;;;;;35.72;24.48;;;;;;;;;;5042269;28;20052;-68
2022/03/26 08:47:51;;;;;;;36.00;24.88;;;;;;;;;;5041060;28;20041;-69
2022/03/26 08:50:17;;;;;;;36.30;24.42;;;;;;;;;;5043850;28;20110;-68
2022/03/26 08:52:43;;;;;;;32.92;23.02;;;;;;;;;;5041649;28;20037;-68
2022/03/26 08:55:09;;;;;;;34.50;24.35;;;;;;;;;;5045251;28;20039;-68
2022/03/26 08:57:35;;;;;;;36.05;23.13;;;;;;;;;;5044322;28;20164;-68
2022/03/26 09:00:01;;;;;;;32.10;21.40;;;;;;;;;;5042708;28;20033;-69
2022/03/26 09:02:27;;;;;;;33.75;22.63;;;;;;;;;;5045847;28;20051;-69
2022/03/26 09:04:53;;;;;;;34.33;22.55;;;;;;;;;;5044275;28;20037;-68
2022/03/26 09:07:19;;;;;;;33.15;21.98;;;;;;;;;;5031217;28;20666;-68
2022/03/26 09:09:45;;;;;;;31.88;21.38;;;;;;;;;;5030507;28;20067;-69
2022/03/26 09:12:11;;;;;;;33.13;22.58;;;;;;;;;;5045804;28;20136;-67
2022/03/26 09:14:37;;;;;;;31.65;20.92;;;;;;;;;;5059163;28;20044;-66
2022/03/26 09:17:03;;;;;;;33.53;22.40;;;;;;;;;;5044387;28;20045;-66
2022/03/26 09:19:30;;;;;;;29.33;19.75;;;;;;;;;;5059649;28;20079;-67
2022/03/26 09:21:56;;;;;;;28.80;19.83;;;;;;;;;;5048393;28;20040;-66
2022/03/26 09:24:23;;;;;;;28.73;19.67;;;;;;;;;;5046998;28;20120;-68
2022/03/26 09:26:49;;;;;;;29.00;20.67;;;;;;;;;;5064755;28;20045;-67
2022/03/26 09:29:16;;;;;;;26.23;18.77;;;;;;;;;;5044087;28;20095;-67
2022/03/26 09:31:42;;;;;;;25.85;18.23;;;;;;;;;;5066406;28;20087;-66
2022/03/26 09:34:09;;;;;;;26.27;19.00;;;;;;;;;;5065356;28;20062;-67
2022/03/26 09:36:35;;;;;;;27.17;18.85;;;;;;;;;;5048223;28;20094;-68
2022/03/26 09:39:01;;;;;;;26.30;17.63;;;;;;;;;;5065267;28;20048;-69
2022/03/26 09:41:27;;;;;;;23.90;17.17;;;;;;;;;;5046890;28;20086;-71
2022/03/26 09:43:54;;;;;;;25.30;16.92;;;;;;;;;;5048701;28;20565;-68
2022/03/26 09:46:21;;;;;;;24.63;16.02;;;;;;;;;;5047651;28;20045;-69
2022/03/26 09:48:47;;;;;;;25.17;17.05;;;;;;;;;;5064860;28;20094;-67
2022/03/26 09:51:15;;;;;;;28.75;16.15;;;;;;;;;;5063611;28;20044;-69
2022/03/26 09:53:42;;;;;;;24.20;16.88;;;;;;;;;;5065330;28;20055;-68
2022/03/26 09:56:08;;;;;;;21.08;15.10;;;;;;;;;;5061391;28;20047;-69
2022/03/26 09:58:34;;;;;;;22.38;16.20;;;;;;;;;;5064040;28;20045;-67
2022/03/26 10:01:00;;;;;;;21.40;15.18;;;;;;;;;;5062721;28;20047;-68
2022/03/26 10:03:26;;;;;;;23.35;15.35;;;;;;;;;;5061595;28;20036;-77
2022/03/26 10:06:05;;;;;;;20.27;13.48;;;;;;;;;;5049404;28;20036;-72
2022/03/26 10:08:34;;;;;;;21.88;14.68;;;;;;;;;;5056899;28;20059;-72
2022/03/26 10:11:01;;;;;;;21.35;13.52;;;;;;;;;;5054901;28;20119;-71
2022/03/26 10:13:40;;;;;;;21.05;13.40;;;;;;;;;;5059199;28;20568;-69
2022/03/26 10:16:17;;;;;;;22.52;13.77;;;;;;;;;;5055628;28;20521;-70
2022/03/26 10:18:44;;;;;;;24.27;13.77;;;;;;;;;;5057016;28;20510;-76
2022/03/26 10:21:17;;;;;;;23.48;14.20;;;;;;;;;;5038301;28;20479;-73
2022/03/26 10:23:48;;;;;;;22.88;13.25;;;;;;;;;;5060088;28;20071;-70
2022/03/26 10:26:19;;;;;;;24.52;14.52;;;;;;;;;;5052441;28;20033;-71
2022/03/26 10:28:53;;;;;;;21.20;13.15;;;;;;;;;;5057097;28;20047;-71
2022/03/26 10:34:14;;;;;;;22.88;12.40;;;;;;;;;;5051418;28;20526;-71
2022/03/26 10:36:46;;;;;;;21.90;12.40;;;;;;;;;;5027485;28;20626;-71
2022/03/26 10:39:17;;;;;;;20.80;12.05;;;;;;;;;;5041699;28;20082;-71
2022/03/26 10:41:43;;;;;;;20.85;11.30;;;;;;;;;;5054727;28;20044;-71
2022/03/26 10:44:13;;;;;;;17.15;11.50;;;;;;;;;;5055188;28;20033;-70
2022/03/26 10:46:46;;;;;;;27.02;11.80;;;;;;;;;;5055629;28;20046;-71
2022/03/26 10:49:13;;;;;;;23.98;10.20;;;;;;;;;;5052628;28;20041;-72
2022/03/26 10:51:41;;;;;;;18.55;9.55;;;;;;;;;;5040139;28;20131;-71
2022/03/26 10:54:15;;;;;;;19.45;9.32;;;;;;;;;;5029509;28;20115;-71
2022/03/26 10:56:42;;;;;;;20.67;9.75;;;;;;;;;;5044074;28;20045;-70
2022/03/26 10:59:08;;;;;;;16.80;8.77;;;;;;;;;;5044365;28;20052;-70
2022/03/26 11:01:35;;;;;;;18.48;9.38;;;;;;;;;;5063674;28;20072;-70
2022/03/26 11:04:01;;;;;;;16.42;8.70;;;;;;;;;;5064350;28;20508;-70
2022/03/26 11:06:28;;;;;;;21.00;8.57;;;;;;;;;;5027447;28;20312;-71
2022/03/26 11:09:00;;;;;;;16.35;8.40;;;;;;;;;;5044283;28;20043;-71
2022/03/26 11:11:30;;;;;;;18.40;8.07;;;;;;;;;;5062132;28;20048;-71
2022/03/26 11:14:11;;;;;;;14.55;7.22;;;;;;;;;;5064339;28;20524;-70
2022/03/26 11:16:37;;;;;;;13.43;7.05;;;;;;;;;;5047430;28;20037;-70
2022/03/26 11:19:09;;;;;;;15.30;7.75;;;;;;;;;;5055015;28;20607;-70
2022/03/26 11:21:54;;;;;;;15.10;6.90;;;;;;;;;;5062818;28;20045;-70
2022/03/26 11:24:41;;;;;;;13.20;7.38;;;;;;;;;;5062292;28;20033;-69
2022/03/26 11:27:07;;;;;;;13.65;6.78;;;;;;;;;;5044854;28;20064;-71
2022/03/26 11:29:42;;;;;;;12.82;6.82;;;;;;;;;;5061164;28;20130;-70
2022/03/26 11:32:47;;;;;;;14.38;6.10;;;;;;;;;;5062054;28;20055;-70
2022/03/26 11:35:14;;;;;;;13.95;6.82;;;;;;;;;;5023985;28;20211;-70
2022/03/26 11:37:51;;;;;;;10.70;6.25;;;;;;;;;;5024374;28;20080;-70
2022/03/26 11:40:36;;;;;;;9.68;5.63;;;;;;;;;;5040035;28;20057;-70
2022/03/26 11:43:02;;;;;;;9.82;5.68;;;;;;;;;;5063525;28;20394;-71
2022/03/26 11:51:19;;;;;;;10.45;5.38;;;;;;;;;;5058385;28;20040;-71
2022/03/26 11:53:48;;;;;;;9.40;5.22;;;;;;;;;;5054089;28;20102;-71
2022/03/26 11:56:22;;;;;;;13.60;4.97;;;;;;;;;;5046741;28;20040;-71
2022/03/26 11:59:05;;;;;;;8.15;5.05;;;;;;;;;;5025498;28;20037;-71
2022/03/26 12:01:41;;;;;;;11.02;5.13;;;;;;;;;;5043687;28;20072;-70
2022/03/26 12:04:11;;;;;;;8.18;4.53;;;;;;;;;;5062120;28;20044;-71
2022/03/26 12:06:44;;;;;;;10.13;5.30;;;;;;;;;;5062622;28;20072;-75
2022/03/26 12:09:11;;;;;;;11.57;4.80;;;;;;;;;;5045854;28;20036;-70
2022/03/26 12:11:37;;;;;;;10.10;4.05;;;;;;;;;;5042178;28;20048;-71
2022/03/26 12:14:04;;;;;;;8.68;4.28;;;;;;;;;;5042565;28;20049;-72
2022/03/26 12:16:49;;;;;;;7.68;4.07;;;;;;;;;;5061566;28;20052;-71
2022/03/26 12:19:34;;;;;;;9.80;4.60;;;;;;;;;;5060936;28;20037;-69
2022/03/26 12:22:17;;;;;;;8.63;4.13;;;;;;;;;;5062108;28;20124;-69
2022/03/26 12:24:43;;;;;;;8.65;4.28;;;;;;;;;;5060638;28;20036;-72
2022/03/26 12:27:09;;;;;;;9.68;4.32;;;;;;;;;;5045462;28;20123;-70
2022/03/26 12:29:39;;;;;;;7.72;3.90;;;;;;;;;;5061985;28;20112;-73
2022/03/26 12:32:05;;;;;;;7.20;3.92;;;;;;;;;;5028074;28;20048;-70
2022/03/26 12:34:31;;;;;;;12.23;4.53;;;;;;;;;;5050954;28;20579;-71
2022/03/26 12:37:01;;;;;;;8.98;4.15;;;;;;;;;;5045935;28;20049;-72
2022/03/26 12:39:27;;;;;;;9.55;3.85;;;;;;;;;;5061724;28;20080;-71
2022/03/26 12:41:54;;;;;;;10.80;3.72;;;;;;;;;;5062704;28;20079;-68
2022/03/26 12:44:22;;;;;;;9.15;3.70;;;;;;;;;;5061197;28;20041;-70
2022/03/26 12:46:49;;;;;;;9.00;3.70;;;;;;;;;;5043070;28;20056;-72
2022/03/26 12:49:16;;;;;;;7.47;3.78;;;;;;;;;;5042573;28;20644;-73
2022/03/26 12:51:41;;;;;;;6.78;3.53;;;;;;;;;;5063029;28;20041;-68
2022/03/26 12:54:08;;;;;;;7.72;3.38;;;;;;;;;;5062873;28;20064;-70
2022/03/26 12:56:34;;;;;;;8.35;3.70;;;;;;;;;;5062330;28;20615;-70
2022/03/26 12:59:00;;;;;;;8.90;3.58;;;;;;;;;;5063162;28;20032;-71
2022/03/26 13:01:27;;;;;;;8.38;3.50;;;;;;;;;;5060750;28;20051;-71
2022/03/26 13:03:53;;;;;;;6.78;3.42;;;;;;;;;;5062594;28;20037;-69
2022/03/26 13:06:20;;;;;;;7.45;3.55;;;;;;;;;;5060957;28;20036;-72
2022/03/26 13:08:57;;;;;;;10.77;4.05;;;;;;;;;;5061968;28;20089;-72
2022/03/26 13:11:26;;;;;;;10.55;3.28;;;;;;;;;;5060187;28;20492;-72
2022/03/26 13:13:53;;;;;;;10.43;3.65;;;;;;;;;;5038252;28;20052;-72
2022/03/26 13:16:21;;;;;;;7.25;3.03;;;;;;;;;;5046397;28;20047;-71
2022/03/26 13:18:48;;;;;;;11.40;3.55;;;;;;;;;;5059089;28;20175;-72
2022/03/26 13:21:15;;;;;;;14.65;3.90;;;;;;;;;;5043828;28;20391;-72
2022/03/26 13:24:11;;;;;;;10.85;4.78;;;;;;;;;;5062439;28;20635;-71
2022/03/26 13:26:53;;;;;;;17.20;5.47;;;;;;;;;;5019875;28;20487;-71
2022/03/26 13:29:29;;;;;;;9.23;4.53;;;;;;;;;;5025687;28;20064;-71
2022/03/26 13:31:57;;;;;;;10.07;4.63;;;;;;;;;;5043639;28;20072;-71
2022/03/26 13:34:44;;;;;;;9.60;4.55;;;;;;;;;;5061423;28;20053;-71
2022/03/26 13:37:11;;;;;;;7.97;4.35;;;;;;;;;;5061920;28;20047;-72
2022/03/26 13:39:38;;;;;;;19.75;4.70;;;;;;;;;;5031575;28;20076;-72
2022/03/26 13:42:11;;;;;;;17.88;6.18;;;;;;;;;;5041766;28;20417;-71
2022/03/26 13:44:38;;;;;;;22.48;5.20;;;;;;;;;;5045049;28;20250;-71
2022/03/26 13:47:04;;;;;;;38.75;5.57;;;;;;;;;;5055446;28;20124;-71
2022/03/26 13:49:31;;;;;;;40.88;5.82;;;;;;;;;;5043952;28;20044;-71
2022/03/26 13:51:57;;;;;;;41.08;7.47;;;;;;;;;;5053918;28;20051;-70
2022/03/26 13:54:34;;;;;;;27.73;5.28;;;;;;;;;;5040798;28;20044;-71
2022/03/26 13:57:01;;;;;;;27.23;5.32;;;;;;;;;;5050884;28;20052;-71
2022/03/26 13:59:27;;;;;;;19.63;5.07;;;;;;;;;;5053954;28;20049;-72
2022/03/26 14:01:54;;;;;;;18.70;4.95;;;;;;;;;;5055868;28;20048;-71
2022/03/26 14:04:24;;;;;;;17.40;4.72;;;;;;;;;;5055922;28;20040;-71
2022/03/26 14:06:52;;;;;;;31.27;5.70;;;;;;;;;;5051729;28;20045;-73
2022/03/26 14:09:21;;;;;;;44.67;6.15;;;;;;;;;;5045807;28;20080;-71
2022/03/26 14:11:47;;;;;;;24.92;4.65;;;;;;;;;;5047061;28;20059;-72
2022/03/26 14:14:13;;;;;;;46.35;5.90;;;;;;;;;;5048063;28;20098;-71
2022/03/26 14:16:39;;;;;;;26.60;5.32;;;;;;;;;;5065363;28;20047;-71
2022/03/26 14:19:05;;;;;;;27.38;4.75;;;;;;;;;;5048781;28;20087;-71
2022/03/26 14:21:31;;;;;;;18.73;4.30;;;;;;;;;;5064097;28;20068;-71
2022/03/26 14:23:57;;;;;;;18.67;4.05;;;;;;;;;;5048799;28;20127;-72
2022/03/26 14:26:23;;;;;;;15.40;3.53;;;;;;;;;;5047116;28;20114;-72
2022/03/26 14:28:49;;;;;;;10.98;2.90;;;;;;;;;;5064551;28;20041;-73
2022/03/26 14:31:15;;;;;;;11.88;2.90;;;;;;;;;;5047853;28;20055;-75
2022/03/26 14:33:42;;;;;;;9.65;2.92;;;;;;;;;;5042179;28;20187;-77